Time;durP1;ratioP1;P1;durP2;ratioP2;P2;SDS_P1;SDS_P2;PMS_P1;PMS_P2;Temp;Humidity;BMP_temperature;BMP_pressure;BME280_temperature;BME280_humidity;BME280_pressure;Samples;Min_cycle;Max_cycle;Signal;HPM_P1;HPM_P2
2022/01/04 00:01:22;;;;;;;;;4.75;3.00;;;;;14.70;70.92;100192.59;6341830;22;45422;-84
2022/01/04 00:03:48;;;;;;;;;4.75;3.50;;;;;14.70;71.15;100182.88;6341671;22;45221;-83
2022/01/04 00:06:13;;;;;;;;;2.25;2.25;;;;;14.69;70.60;100175.06;6341614;22;45205;-87
2022/01/04 00:08:39;;;;;;;;;2.50;2.50;;;;;14.69;70.95;100169.75;6341651;22;45162;-86
2022/01/04 00:11:19;;;;;;;;;1.25;1.25;;;;;14.68;70.99;100162.75;6341616;22;45247;-86
2022/01/04 00:13:46;;;;;;;;;2.75;2.75;;;;;14.66;71.37;100159.34;6341062;22;45495;-87
2022/01/04 00:16:12;;;;;;;;;1.75;1.75;;;;;14.65;71.10;100150.56;6341730;22;45233;-86
2022/01/04 00:18:39;;;;;;;;;2.00;2.00;;;;;14.66;71.16;100149.63;6342031;22;45516;-88
2022/01/04 00:21:05;;;;;;;;;1.25;1.25;;;;;14.66;71.04;100148.78;6341883;22;45247;-85
2022/01/04 00:23:30;;;;;;;;;0.00;0.00;;;;;14.68;70.92;100152.19;6312404;22;46218;-84
2022/01/04 00:25:56;;;;;;;;;2.00;2.00;;;;;14.66;71.09;100133.75;6341419;22;45376;-83
2022/01/04 00:28:22;;;;;;;;;2.00;1.25;;;;;14.65;70.74;100129.41;6341173;22;45261;-84
2022/01/04 00:30:48;;;;;;;;;0.25;0.25;;;;;14.66;70.90;100122.31;6341767;22;45429;-84
2022/01/04 00:33:16;;;;;;;;;1.00;1.00;;;;;14.64;70.92;100114.50;6341479;22;45365;-84
2022/01/04 00:35:42;;;;;;;;;0.75;0.75;;;;;14.63;71.00;100108.34;6341080;22;45248;-85
2022/01/04 00:38:08;;;;;;;;;2.00;1.00;;;;;14.60;71.05;100095.31;6341305;22;45688;-85
2022/01/04 00:40:34;;;;;;;;;0.00;0.00;;;;;14.61;71.33;100094.38;6341531;22;45382;-84
2022/01/04 00:42:59;;;;;;;;;0.00;0.00;;;;;14.60;71.18;100075.94;6341446;22;45097;-87
2022/01/04 00:45:26;;;;;;;;;0.25;0.00;;;;;14.60;71.00;100068.84;6341037;22;45405;-83
2022/01/04 00:50:21;;;;;;;;;0.50;0.50;;;;;14.61;71.21;100060.00;6340991;22;45355;-85
2022/01/04 00:52:46;;;;;;;;;0.00;0.00;;;;;14.61;71.05;100062.63;6313009;22;46184;-85
2022/01/04 00:55:12;;;;;;;;;0.00;0.00;;;;;14.61;71.23;100057.34;6340932;22;46313;-85
2022/01/04 00:57:37;;;;;;;;;1.00;0.00;;;;;14.60;71.10;100044.19;6312860;22;46010;-85
2022/01/04 01:00:05;;;;;;;;;1.50;0.00;;;;;14.60;71.20;100045.06;6313603;22;45218;-83
2022/01/04 01:02:31;;;;;;;;;1.00;1.00;;;;;14.58;71.17;100036.38;6341538;22;45389;-84
2022/01/04 01:04:56;;;;;;;;;1.00;0.00;;;;;14.58;71.31;100039.00;6341120;22;45440;-84
2022/01/04 01:07:21;;;;;;;;;0.00;0.00;;;;;14.57;71.20;100029.38;6341598;22;45385;-85
2022/01/04 01:10:05;;;;;;;;;0.00;0.00;;;;;14.58;71.45;100015.22;6341308;22;45183;-84
2022/01/04 01:12:30;;;;;;;;;0.00;0.00;;;;;14.59;71.45;100005.50;6341601;22;45322;-84
2022/01/04 01:14:55;;;;;;;;;0.75;0.75;;;;;14.61;71.19;99999.16;6341156;22;45363;-85
2022/01/04 01:17:21;;;;;;;;;0.50;0.00;;;;;14.61;71.39;99990.38;6341284;22;45361;-85
2022/01/04 01:19:47;;;;;;;;;0.25;0.00;;;;;14.62;71.57;99989.41;6341395;22;45258;-85
2022/01/04 01:22:12;;;;;;;;;0.00;0.00;;;;;14.59;71.10;99977.22;6340786;22;45271;-85
2022/01/04 01:24:38;;;;;;;;;0.25;0.00;;;;;14.59;71.14;99982.53;6341098;22;46385;-84
2022/01/04 01:27:03;;;;;;;;;0.25;0.25;;;;;14.59;71.45;99973.75;6340689;22;45246;-85
2022/01/04 01:29:29;;;;;;;;;0.00;0.00;;;;;14.58;71.23;99974.69;6341549;22;45250;-85
2022/01/04 01:31:54;;;;;;;;;0.75;0.00;;;;;14.57;71.31;99973.84;6341580;22;45574;-86
2022/01/04 01:34:19;;;;;;;;;1.50;0.75;;;;;14.56;71.11;99966.88;6341437;22;46426;-85
2022/01/04 01:36:45;;;;;;;;;0.00;0.00;;;;;14.56;71.32;99958.94;6341272;22;45112;-85
2022/01/04 01:39:10;;;;;;;;;0.00;0.00;;;;;14.57;71.47;99959.78;6313021;22;45595;-85
2022/01/04 01:41:36;;;;;;;;;0.00;0.00;;;;;14.57;71.18;99947.38;6313143;22;45683;-85
2022/01/04 01:44:01;;;;;;;;;0.00;0.00;;;;;14.55;71.44;99945.78;6312853;22;45880;-84
2022/01/04 01:46:26;;;;;;;;;0.00;0.00;;;;;14.53;71.53;99937.97;6341704;22;45185;-87
2022/01/04 01:48:52;;;;;;;;;0.00;0.00;;;;;14.52;71.62;99936.25;6341578;22;45166;-85
2022/01/04 01:51:17;;;;;;;;;0.00;0.00;;;;;14.52;71.33;99921.25;6339104;22;47314;-85
2022/01/04 01:53:45;;;;;;;;;0.00;0.00;;;;;14.55;71.43;99916.69;6341047;22;45136;-84
2022/01/04 01:56:10;;;;;;;;;1.00;1.00;;;;;14.55;71.72;99909.63;6341572;22;45380;-85
2022/01/04 01:58:35;;;;;;;;;0.00;0.00;;;;;14.54;71.70;99897.38;6341421;22;45769;-85
2022/01/04 02:01:01;;;;;;;;;0.00;0.00;;;;;14.52;71.82;99897.44;6341064;22;45286;-84
2022/01/04 02:03:26;;;;;;;;;0.50;0.50;;;;;14.52;71.45;99893.94;6341389;22;46637;-87
2022/01/04 02:05:53;;;;;;;;;0.25;0.25;;;;;14.54;71.59;99896.50;6341106;22;45278;-88
2022/01/04 02:08:19;;;;;;;;;1.00;1.00;;;;;14.54;71.55;99901.81;6340314;22;45176;-85
2022/01/04 02:10:45;;;;;;;;;0.00;0.00;;;;;14.54;71.55;99897.38;6340935;22;45253;-85
2022/01/04 02:13:11;;;;;;;;;0.00;0.00;;;;;14.57;71.91;99901.63;6341138;22;46125;-85
2022/01/04 02:15:36;;;;;;;;;0.25;0.25;;;;;14.56;71.22;99884.03;6341332;22;45208;-86
2022/01/04 02:18:03;;;;;;;;;0.00;0.00;;;;;14.52;71.42;99870.16;6341598;22;45156;-85
2022/01/04 02:20:29;;;;;;;;;0.25;0.00;;;;;14.55;71.86;99863.81;6341062;22;45345;-86
2022/01/04 02:22:55;;;;;;;;;3.00;1.75;;;;;14.57;71.68;99873.34;6340826;22;45173;-90
2022/01/04 02:25:21;;;;;;;;;2.00;1.00;;;;;14.53;71.53;99861.28;6312624;22;45739;-90
2022/01/04 02:27:48;;;;;;;;;0.75;0.75;;;;;14.54;71.57;99855.06;6312753;22;45388;-86
2022/01/04 02:30:16;;;;;;;;;2.25;0.75;;;;;14.51;71.65;99850.81;6312805;22;46079;-86
2022/01/04 02:32:43;;;;;;;;;2.00;0.75;;;;;14.53;71.59;99842.78;6340728;22;45447;-86
2022/01/04 02:35:09;;;;;;;;;0.25;0.25;;;;;14.53;71.71;99840.13;6340486;22;45154;-90
2022/01/04 02:37:35;;;;;;;;;1.00;1.00;;;;;14.55;71.85;99835.59;6313168;22;45460;-88
2022/01/04 02:40:00;;;;;;;;;1.00;1.00;;;;;14.54;71.73;99818.03;6312625;22;46095;-91
2022/01/04 02:42:26;;;;;;;;;1.00;1.00;;;;;14.54;71.71;99815.41;6313561;22;48357;-94
2022/01/04 02:44:51;;;;;;;;;0.50;0.50;;;;;14.53;71.65;99816.34;6314204;22;45665;-95
2022/01/04 02:47:17;;;;;;;;;1.75;1.75;;;;;14.50;71.78;99816.53;6314227;22;45301;-92
2022/01/04 02:49:43;;;;;;;;;2.00;1.00;;;;;14.49;71.97;99804.28;6312880;22;46960;-92
2022/01/04 02:52:08;;;;;;;;;3.00;1.00;;;;;14.50;71.69;99795.38;6312454;22;46997;-91
2022/01/04 02:54:34;;;;;;;;;1.00;1.00;;;;;14.50;71.74;99788.28;6340577;22;45315;-87
2022/01/04 02:57:00;;;;;;;;;2.00;1.00;;;;;14.54;71.76;99791.59;6340645;22;45235;-88
2022/01/04 02:59:25;;;;;;;;;0.75;0.75;;;;;14.55;71.91;99779.19;6312210;22;46119;-87
2022/01/04 03:01:51;;;;;;;;;2.75;2.75;;;;;14.55;71.77;99776.56;6340920;22;45371;-87
2022/01/04 03:04:16;;;;;;;;;1.00;1.00;;;;;14.53;71.96;99768.75;6340472;22;45137;-87
2022/01/04 03:06:41;;;;;;;;;2.25;2.25;;;;;14.52;71.66;99765.25;6312663;22;45669;-87
2022/01/04 03:09:07;;;;;;;;;0.50;0.50;;;;;14.53;71.98;99766.09;6340186;22;45182;-87
2022/01/04 03:11:33;;;;;;;;;1.00;1.00;;;;;14.55;71.73;99760.69;6312174;22;47245;-87
2022/01/04 03:14:00;;;;;;;;;2.25;1.00;;;;;14.54;71.88;99762.50;6340355;22;45574;-86
2022/01/04 03:16:25;;;;;;;;;1.00;0.25;;;;;14.53;71.80;99755.53;6340942;22;45235;-83
2022/01/04 03:19:05;;;;;;;;;2.25;1.00;;;;;14.54;71.87;99749.28;6340842;22;45390;-82
2022/01/04 03:21:32;;;;;;;;;1.00;1.00;;;;;14.56;72.11;99742.09;6341257;22;45376;-86
2022/01/04 03:23:57;;;;;;;;;1.00;1.00;;;;;14.58;72.20;99734.91;6341791;22;45441;-85
2022/01/04 03:26:24;;;;;;;;;4.25;2.75;;;;;14.54;71.97;99733.44;6342388;22;45332;-86
2022/01/04 03:28:49;;;;;;;;;4.00;4.00;;;;;14.50;71.76;99726.63;6341318;22;45479;-82
2022/01/04 03:31:14;;;;;;;;;4.75;3.25;;;;;14.46;71.29;99727.78;6342031;22;46587;-83
2022/01/04 03:33:40;;;;;;;;;7.00;7.00;;;;;14.40;71.05;99729.03;6341745;22;45085;-87
2022/01/04 03:36:05;;;;;;;;;6.00;6.00;;;;;14.35;70.88;99718.75;6313675;22;45361;-87
2022/01/04 03:38:31;;;;;;;;;7.25;7.25;;;;;14.26;70.77;99719.38;6341570;22;45355;-87
2022/01/04 03:40:56;;;;;;;;;7.00;7.00;;;;;14.14;70.88;99713.09;6341755;22;45221;-88
2022/01/04 03:43:22;;;;;;;;;6.00;5.25;;;;;14.01;70.96;99705.09;6341482;22;45250;-87
2022/01/04 03:45:51;;;;;;;;;5.25;5.25;;;;;13.92;70.78;99704.75;6341819;22;45349;-85
2022/01/04 03:48:16;;;;;;;;;6.00;3.25;;;;;13.87;70.69;99704.19;6341954;22;45167;-86
2022/01/04 03:50:42;;;;;;;;;5.00;5.00;;;;;13.77;70.97;99708.34;6313130;22;46077;-87
2022/01/04 03:53:08;;;;;;;;;6.50;4.75;;;;;13.72;71.13;99700.72;6341428;22;45129;-87
2022/01/04 03:55:34;;;;;;;;;4.25;3.50;;;;;13.71;71.44;99699.88;6341960;22;45227;-87
2022/01/04 03:58:00;;;;;;;;;4.00;4.00;;;;;13.63;71.00;99702.13;6342129;22;45189;-90
2022/01/04 04:00:25;;;;;;;;;6.50;5.00;;;;;13.53;71.03;99701.00;6341692;22;46354;-88
2022/01/04 04:02:51;;;;;;;;;3.75;2.75;;;;;13.52;71.15;99705.44;6341725;22;45384;-88
2022/01/04 04:05:16;;;;;;;;;1.75;1.75;;;;;13.43;70.94;99701.59;6341840;22;45378;-84
2022/01/04 04:07:42;;;;;;;;;5.00;3.75;;;;;13.34;70.48;99691.56;6341471;22;45279;-84
2022/01/04 04:10:09;;;;;;;;;0.75;0.75;;;;;13.25;70.58;99698.28;6312913;22;48384;-84
2022/01/04 04:12:35;;;;;;;;;1.25;1.25;;;;;13.13;71.00;99708.66;6313487;22;45525;-85
2022/01/04 04:15:04;;;;;;;;;0.75;0.75;;;;;13.07;70.83;99698.44;6342030;22;45089;-85
2022/01/04 04:17:30;;;;;;;;;0.25;0.25;;;;;13.03;70.88;99711.00;6341402;22;45074;-85
2022/01/04 04:19:55;;;;;;;;;0.25;0.25;;;;;12.98;71.01;99712.19;6341721;22;46324;-86
2022/01/04 04:22:21;;;;;;;;;0.75;0.75;;;;;12.92;70.78;99714.25;6341266;22;45213;-85
2022/01/04 04:24:46;;;;;;;;;0.00;0.00;;;;;12.79;70.54;99708.84;6313121;22;45294;-84
2022/01/04 04:27:13;;;;;;;;;0.00;0.00;;;;;12.73;70.52;99721.56;6341575;22;45273;-83
2022/01/04 04:29:38;;;;;;;;;0.25;0.25;;;;;12.63;70.53;99722.09;6340974;22;46485;-85
2022/01/04 04:32:04;;;;;;;;;0.00;0.00;;;;;12.53;71.15;99718.28;6341154;22;45176;-83
2022/01/04 04:34:30;;;;;;;;;0.75;0.75;;;;;12.44;70.85;99730.22;6341732;22;45677;-83
2022/01/04 04:36:55;;;;;;;;;2.00;2.00;;;;;12.31;71.14;99714.25;6341422;22;45153;-82
2022/01/04 04:39:21;;;;;;;;;2.00;2.00;;;;;12.22;71.41;99737.53;6341038;22;45153;-83
2022/01/04 04:41:46;;;;;;;;;1.00;1.00;;;;;12.10;71.15;99738.22;6341716;22;45238;-84
2022/01/04 04:44:11;;;;;;;;;1.50;1.25;;;;;11.98;71.90;99735.31;6341680;22;45239;-84
2022/01/04 04:46:37;;;;;;;;;1.25;1.25;;;;;11.94;71.78;99733.78;6341639;22;45199;-87
2022/01/04 04:49:05;;;;;;;;;1.25;1.00;;;;;11.88;71.83;99728.84;6341517;22;45284;-89
2022/01/04 04:51:30;;;;;;;;;0.00;0.00;;;;;11.82;72.07;99719.50;6341387;22;45449;-89
2022/01/04 04:53:56;;;;;;;;;1.25;0.00;;;;;11.77;72.26;99721.53;6341687;22;45270;-87
2022/01/04 04:56:21;;;;;;;;;0.00;0.00;;;;;11.73;72.63;99733.19;6341611;22;45294;-88
2022/01/04 04:58:47;;;;;;;;;0.00;0.00;;;;;11.64;72.42;99731.88;6312933;22;48233;-88
2022/01/04 05:01:12;;;;;;;;;0.00;0.00;;;;;11.65;72.73;99738.84;6341779;22;45226;-85
2022/01/04 05:03:37;;;;;;;;;0.50;0.50;;;;;11.66;72.57;99749.28;6341846;22;45348;-85
2022/01/04 05:06:03;;;;;;;;;0.00;0.00;;;;;11.63;72.89;99756.53;6341502;22;45530;-85
2022/01/04 05:08:28;;;;;;;;;0.00;0.00;;;;;11.59;72.28;99751.41;6341055;22;46091;-85
2022/01/04 05:10:53;;;;;;;;;0.00;0.00;;;;;11.49;72.41;99747.56;6341686;22;45216;-86
2022/01/04 05:13:19;;;;;;;;;0.50;0.00;;;;;11.46;72.63;99742.44;6341593;22;45333;-87
2022/01/04 05:15:44;;;;;;;;;0.00;0.00;;;;;11.44;73.15;99758.34;6341214;22;45348;-84
2022/01/04 05:18:10;;;;;;;;;0.00;0.00;;;;;11.46;72.71;99761.72;6341434;22;46252;-84
2022/01/04 05:20:35;;;;;;;;;0.00;0.00;;;;;11.50;72.84;99772.97;6341251;22;45364;-85
2022/01/04 05:23:00;;;;;;;;;1.00;0.00;;;;;11.49;72.58;99760.72;6340815;22;45358;-85
2022/01/04 05:25:26;;;;;;;;;2.00;0.00;;;;;11.51;72.72;99764.13;6313046;22;46040;-85
2022/01/04 05:27:51;;;;;;;;;0.00;0.00;;;;;11.48;72.73;99762.50;6341302;22;45488;-84
2022/01/04 05:30:16;;;;;;;;;0.50;0.50;;;;;11.51;72.61;99779.06;6312323;22;45104;-84
2022/01/04 05:32:42;;;;;;;;;0.25;0.25;;;;;11.45;72.62;99760.03;6341676;22;45299;-84
2022/01/04 05:35:08;;;;;;;;;0.00;0.00;;;;;11.42;72.05;99778.63;6341128;22;45472;-85
2022/01/04 05:37:33;;;;;;;;;0.00;0.00;;;;;11.36;72.34;99768.41;6341536;22;45149;-82
2022/01/04 05:39:59;;;;;;;;;1.00;0.00;;;;;11.30;72.37;99774.00;6340972;22;45175;-84
2022/01/04 05:42:24;;;;;;;;;1.00;1.00;;;;;11.24;72.77;99770.75;6341069;22;45246;-85
2022/01/04 05:44:49;;;;;;;;;0.00;0.00;;;;;11.23;72.59;99770.81;6313007;22;45965;-85
2022/01/04 05:47:15;;;;;;;;;0.00;0.00;;;;;11.24;72.92;99773.38;6341220;22;46297;-84
2022/01/04 05:49:40;;;;;;;;;2.00;0.00;;;;;11.23;72.70;99773.47;6341169;22;45408;-83
2022/01/04 05:52:06;;;;;;;;;1.00;0.00;;;;;11.23;72.44;99776.94;6341230;22;45444;-83
2022/01/04 05:54:32;;;;;;;;;2.00;1.00;;;;;11.22;72.41;99779.63;6340631;22;45413;-82
2022/01/04 05:56:57;;;;;;;;;0.50;0.50;;;;;11.22;72.69;99777.88;6341315;22;45375;-82
2022/01/04 05:59:23;;;;;;;;;0.00;0.00;;;;;11.20;72.60;99784.13;6340968;22;45249;-82
2022/01/04 06:01:48;;;;;;;;;1.25;1.25;;;;;11.18;72.73;99788.63;6341485;22;45338;-82
2022/01/04 06:04:14;;;;;;;;;1.75;1.75;;;;;11.23;72.64;99782.22;6341014;22;45220;-83
2022/01/04 06:06:41;;;;;;;;;3.00;1.25;;;;;11.23;72.80;99776.94;6312790;22;46292;-82
2022/01/04 06:09:08;;;;;;;;;1.00;1.00;;;;;11.27;72.33;99768.88;6341020;22;45515;-81
2022/01/04 06:16:52;;;;;;;;;0.50;0.50;;;;;11.28;72.01;99778.47;6340749;22;45196;-80
2022/01/04 06:19:17;;;;;;;;;3.25;1.00;;;;;11.26;71.86;99770.66;6341114;22;45240;-79
2022/01/04 06:21:43;;;;;;;;;2.00;1.00;;;;;11.27;72.03;99782.88;6340675;22;45087;-79
2022/01/04 06:24:08;;;;;;;;;3.00;2.00;;;;;11.27;72.16;99769.72;6341048;22;45145;-79
2022/01/04 06:26:34;;;;;;;;;1.00;1.00;;;;;11.29;72.12;99775.75;6312274;22;45994;-80
2022/01/04 06:29:01;;;;;;;;;2.00;2.00;;;;;11.30;72.28;99781.88;6339578;22;45132;-79
2022/01/04 06:31:27;;;;;;;;;1.00;1.00;;;;;11.31;72.02;99789.69;6340229;22;45358;-79
2022/01/04 06:33:53;;;;;;;;;2.00;2.00;;;;;11.39;71.91;99798.97;6340574;22;45440;-79
2022/01/04 06:36:18;;;;;;;;;2.00;2.00;;;;;11.36;71.92;99795.56;6340862;22;45627;-84
2022/01/04 06:38:44;;;;;;;;;1.75;1.75;;;;;11.38;72.02;99810.44;6311834;22;45250;-83
2022/01/04 06:41:09;;;;;;;;;2.00;2.00;;;;;11.42;72.00;99807.56;6339794;22;45248;-81
2022/01/04 06:43:34;;;;;;;;;1.00;1.00;;;;;11.42;71.67;99807.56;6339955;22;45258;-82
2022/01/04 06:46:00;;;;;;;;;2.25;2.25;;;;;11.40;71.40;99803.31;6339548;22;45359;-81
2022/01/04 06:48:25;;;;;;;;;0.00;0.00;;;;;11.41;71.56;99816.38;6339562;22;45184;-81
2022/01/04 06:50:51;;;;;;;;;1.50;1.50;;;;;11.40;71.25;99819.94;6339497;22;45274;-81
2022/01/04 06:53:17;;;;;;;;;1.75;1.00;;;;;11.38;71.11;99818.31;6339406;22;45345;-81
2022/01/04 06:55:42;;;;;;;;;0.75;0.75;;;;;11.34;71.46;99822.88;6342860;22;45483;-81
2022/01/04 06:58:08;;;;;;;;;0.25;0.25;;;;;11.28;71.34;99831.09;6314866;22;45180;-82
2022/01/04 07:00:33;;;;;;;;;1.25;1.00;;;;;11.31;71.30;99841.47;6342948;22;45250;-81
2022/01/04 07:02:58;;;;;;;;;1.00;1.00;;;;;11.32;71.29;99837.88;6342824;22;45221;-81
2022/01/04 07:05:24;;;;;;;;;1.25;1.00;;;;;11.31;70.97;99847.56;6342844;22;46353;-81
2022/01/04 07:07:49;;;;;;;;;1.00;1.00;;;;;11.33;71.33;99855.38;6342987;22;45232;-81
2022/01/04 07:10:15;;;;;;;;;1.75;1.00;;;;;11.35;71.28;99853.53;6342433;22;45206;-80
2022/01/04 07:12:40;;;;;;;;;1.00;1.00;;;;;11.38;71.27;99855.16;6342568;22;45218;-81
2022/01/04 07:15:06;;;;;;;;;2.00;2.00;;;;;11.39;71.02;99851.56;6342824;22;45293;-81
2022/01/04 07:17:33;;;;;;;;;2.00;2.00;;;;;11.43;71.42;99856.59;6314473;22;45390;-80
2022/01/04 07:19:59;;;;;;;;;2.00;2.00;;;;;11.45;71.05;99854.78;6342681;22;45358;-81
2022/01/04 07:22:25;;;;;;;;;2.00;2.00;;;;;11.46;71.09;99851.19;6342483;22;45380;-81
2022/01/04 07:24:51;;;;;;;;;2.00;2.00;;;;;11.48;70.93;99857.22;6343552;22;45369;-80
2022/01/04 07:27:16;;;;;;;;;2.00;2.00;;;;;11.48;70.87;99851.97;6343705;22;45242;-81
2022/01/04 07:29:41;;;;;;;;;3.00;1.50;;;;;11.44;70.56;99862.72;6344011;22;45372;-83
2022/01/04 07:32:07;;;;;;;;;1.75;1.75;;;;;11.46;70.62;99866.97;6343670;22;45164;-84
2022/01/04 07:34:32;;;;;;;;;0.00;0.00;;;;;11.38;69.81;99861.28;6343611;22;45261;-84
2022/01/04 07:36:58;;;;;;;;;1.00;1.00;;;;;11.36;70.62;99873.63;6343830;22;45171;-85
2022/01/04 07:39:23;;;;;;;;;1.00;1.00;;;;;11.36;70.50;99871.84;6343568;22;45902;-84
2022/01/04 07:41:49;;;;;;;;;1.00;1.00;;;;;11.43;70.39;99888.19;6343761;22;45105;-84
2022/01/04 07:44:14;;;;;;;;;2.75;1.00;;;;;11.47;70.30;99886.25;6342733;22;46613;-84
2022/01/04 07:46:39;;;;;;;;;2.00;1.00;;;;;11.47;70.62;99883.63;6343064;22;45193;-84
2022/01/04 07:49:05;;;;;;;;;1.50;1.00;;;;;11.47;70.74;99891.53;6343396;22;45165;-84
2022/01/04 07:51:31;;;;;;;;;1.25;1.25;;;;;11.48;70.47;99895.88;6343030;22;45207;-84
2022/01/04 07:53:56;;;;;;;;;2.00;2.00;;;;;11.50;70.48;99898.41;6343125;22;46341;-84
2022/01/04 07:56:22;;;;;;;;;3.00;2.00;;;;;11.47;69.92;99900.28;6343176;22;45303;-84
2022/01/04 07:58:47;;;;;;;;;1.75;1.75;;;;;11.46;69.74;99911.72;6343422;22;45365;-84
2022/01/04 08:01:13;;;;;;;;;17.25;16.00;;;;;11.45;69.60;99909.16;6342905;22;45378;-84
2022/01/04 08:03:38;;;;;;;;;11.25;8.75;;;;;11.46;70.43;99922.25;6343367;22;45345;-84
2022/01/04 08:06:04;;;;;;;;;7.75;7.75;;;;;11.51;70.43;99936.97;6341906;22;45292;-84
2022/01/04 08:08:30;;;;;;;;;4.50;4.00;;;;;11.51;69.88;99943.06;6341627;22;45385;-84
2022/01/04 08:10:55;;;;;;;;;3.50;3.00;;;;;11.53;69.90;99943.00;6341626;22;45480;-84
2022/01/04 08:13:21;;;;;;;;;3.00;3.00;;;;;11.57;69.78;99948.03;6341767;22;45340;-84
2022/01/04 08:15:46;;;;;;;;;5.50;5.50;;;;;11.55;69.96;99965.69;6341800;22;45073;-84
2022/01/04 08:18:12;;;;;;;;;2.50;2.50;;;;;11.58;69.92;99968.13;6341977;22;45210;-84
2022/01/04 08:20:37;;;;;;;;;3.50;3.50;;;;;11.59;69.68;99974.25;6341562;22;45200;-84
2022/01/04 08:23:02;;;;;;;;;4.75;4.75;;;;;11.60;69.96;99978.63;6340659;22;45301;-84
2022/01/04 08:25:28;;;;;;;;;4.25;4.25;;;;;11.62;69.59;99974.13;6341403;22;45137;-84
2022/01/04 08:27:53;;;;;;;;;5.00;5.00;;;;;11.66;69.88;99975.66;6341935;22;45167;-85
2022/01/04 08:30:19;;;;;;;;;6.50;6.00;;;;;11.67;70.35;99961.59;6341683;22;45217;-84
2022/01/04 08:32:44;;;;;;;;;36.50;31.75;;;;;11.69;70.00;99956.22;6341446;22;46322;-84
2022/01/04 08:35:10;;;;;;;;;70.00;52.25;;;;;11.73;69.89;99962.22;6341344;22;45146;-84
2022/01/04 08:37:36;;;;;;;;;28.75;25.00;;;;;11.77;70.01;99969.00;6341892;22;45322;-84
2022/01/04 08:40:05;;;;;;;;;20.75;20.50;;;;;11.81;70.39;99986.34;6341138;22;45397;-85
2022/01/04 08:42:31;;;;;;;;;10.00;8.50;;;;;11.82;69.89;99988.06;6313113;22;46183;-84
2022/01/04 08:44:57;;;;;;;;;35.25;28.75;;;;;11.84;69.85;99986.19;6341152;22;45267;-84
2022/01/04 08:47:23;;;;;;;;;35.75;30.00;;;;;11.85;69.51;99987.91;6342001;22;45467;-84
2022/01/04 08:49:49;;;;;;;;;37.25;32.00;;;;;11.83;69.58;99992.38;6312920;22;46498;-84
2022/01/04 08:52:15;;;;;;;;;30.75;23.25;;;;;11.86;69.54;100007.19;6341143;22;46241;-84
2022/01/04 08:54:40;;;;;;;;;28.75;22.00;;;;;11.88;69.62;100013.22;6341147;22;45232;-84
2022/01/04 08:57:07;;;;;;;;;36.25;29.00;;;;;11.86;69.49;100008.03;6341002;22;45281;-84
2022/01/04 08:59:33;;;;;;;;;26.50;23.50;;;;;11.89;69.65;100001.78;6341567;22;45432;-84
2022/01/04 09:01:59;;;;;;;;;7.25;6.00;;;;;11.91;69.34;100002.53;6341260;22;45338;-84
2022/01/04 09:04:24;;;;;;;;;8.75;7.25;;;;;11.91;69.34;99995.50;6341003;22;45322;-84
2022/01/04 09:06:50;;;;;;;;;4.25;3.50;;;;;11.91;69.03;100007.81;6341185;22;45263;-84
2022/01/04 09:09:16;;;;;;;;;3.75;3.00;;;;;11.89;69.08;100009.66;6341247;22;45264;-85
2022/01/04 09:11:41;;;;;;;;;3.00;3.00;;;;;11.89;69.25;100025.47;6335460;22;46204;-83
2022/01/04 09:19:26;;;;;;;;;18.75;12.50;;;;;11.88;69.41;100037.78;6340350;22;45357;-85
2022/01/04 09:21:51;;;;;;;;;5.25;4.00;;;;;11.89;69.68;100026.31;6339217;22;45341;-85
2022/01/04 09:24:17;;;;;;;;;2.25;2.25;;;;;11.93;69.27;100025.22;6340922;22;45171;-83
2022/01/04 09:26:43;;;;;;;;;17.75;13.75;;;;;11.90;69.46;100022.75;6312133;22;45604;-82
2022/01/04 09:29:08;;;;;;;;;6.50;6.25;;;;;11.88;69.32;100024.59;6311771;22;47259;-83
2022/01/04 09:31:34;;;;;;;;;9.25;7.00;;;;;11.91;69.64;100024.47;6340693;22;45292;-82
2022/01/04 09:34:01;;;;;;;;;9.75;6.00;;;;;11.91;69.49;100013.06;6339878;22;45171;-83
2022/01/04 09:36:33;;;;;;;;;2.25;2.25;;;;;11.92;69.58;100027.94;6340715;22;45290;-83
2022/01/04 09:38:59;;;;;;;;;3.00;3.00;;;;;11.96;69.83;100026.88;6340508;22;45168;-83
2022/01/04 09:41:24;;;;;;;;;4.75;0.00;;;;;11.96;69.84;100023.38;6339746;22;45173;-84
2022/01/04 09:43:51;;;;;;;;;3.50;3.50;;;;;11.98;69.90;100027.63;6340034;22;45173;-83
2022/01/04 09:46:18;;;;;;;;;2.00;2.00;;;;;11.98;69.68;100024.13;6341449;22;45338;-83
2022/01/04 09:48:43;;;;;;;;;4.00;2.75;;;;;12.01;70.30;100019.59;6340329;22;45514;-83
2022/01/04 09:51:10;;;;;;;;;2.50;2.50;;;;;12.01;69.98;100008.19;6338344;22;45683;-84
2022/01/04 09:53:35;;;;;;;;;4.00;3.00;;;;;12.04;70.42;100008.91;6339999;22;45214;-83
2022/01/04 09:56:01;;;;;;;;;4.00;4.00;;;;;12.03;70.22;100017.72;6339935;22;45712;-83
2022/01/04 09:58:28;;;;;;;;;4.75;3.50;;;;;12.07;70.15;100036.88;6339966;22;45562;-83
2022/01/04 10:00:54;;;;;;;;;5.00;4.00;;;;;12.10;70.17;100039.31;6340588;22;46389;-83
2022/01/04 10:03:25;;;;;;;;;3.75;3.75;;;;;12.10;69.92;100047.22;6340064;22;45170;-82
2022/01/04 10:06:03;;;;;;;;;5.00;5.00;;;;;12.12;69.87;100040.09;6340984;22;45297;-83
2022/01/04 10:08:28;;;;;;;;;4.00;4.00;;;;;12.14;69.92;100045.34;6340870;22;45241;-83
2022/01/04 10:11:08;;;;;;;;;2.25;2.25;;;;;12.12;70.05;100053.25;6341035;22;45189;-83
2022/01/04 10:13:33;;;;;;;;;4.00;4.00;;;;;12.13;69.48;100062.91;6340468;22;45267;-83
2022/01/04 10:15:59;;;;;;;;;5.00;5.00;;;;;12.13;69.51;100070.81;6341041;22;45254;-85
2022/01/04 10:18:27;;;;;;;;;6.75;4.75;;;;;12.15;69.78;100076.84;6341139;22;45377;-84
2022/01/04 10:21:12;;;;;;;;;7.25;6.50;;;;;12.11;68.86;100083.19;6341005;22;46010;-84
2022/01/04 10:23:55;;;;;;;;;5.00;3.75;;;;;12.09;69.09;100081.56;6340628;22;45671;-84
2022/01/04 10:26:37;;;;;;;;;4.75;4.75;;;;;12.05;69.00;100072.94;6341287;22;45137;-87
2022/01/04 10:29:19;;;;;;;;;4.75;4.25;;;;;12.05;69.39;100078.22;6339744;22;45247;-86
2022/01/04 10:31:44;;;;;;;;;4.25;4.25;;;;;12.06;69.46;100073.81;6341105;22;46380;-84
2022/01/04 10:34:09;;;;;;;;;5.75;5.25;;;;;12.02;69.84;100071.34;6340932;22;45192;-85
2022/01/04 10:36:39;;;;;;;;;4.00;4.00;;;;;12.02;70.07;100068.72;6341256;22;45151;-85
2022/01/04 10:39:08;;;;;;;;;3.00;3.00;;;;;12.06;69.83;100058.84;6312375;22;46163;-85
2022/01/04 10:41:34;;;;;;;;;3.00;3.00;;;;;12.10;70.25;100056.94;6341217;22;46000;-85
2022/01/04 10:44:10;;;;;;;;;3.00;3.00;;;;;12.12;70.06;100058.53;6341212;22;45247;-85
2022/01/04 10:46:41;;;;;;;;;5.25;3.75;;;;;12.16;70.41;100061.91;6340755;22;45188;-85
2022/01/04 10:49:21;;;;;;;;;3.00;3.00;;;;;12.19;70.16;100050.38;6341182;22;45081;-85
2022/01/04 10:52:05;;;;;;;;;4.25;3.00;;;;;12.22;70.38;100029.97;6340344;22;45367;-85
2022/01/04 10:54:30;;;;;;;;;4.75;3.75;;;;;12.24;70.50;100020.22;6340415;22;45110;-85
2022/01/04 10:57:09;;;;;;;;;2.00;2.00;;;;;12.30;70.57;100039.28;6341116;22;45151;-85
2022/01/04 10:59:35;;;;;;;;;4.50;4.00;;;;;12.31;70.28;100043.63;6312561;22;46819;-88
2022/01/04 11:02:01;;;;;;;;;4.25;2.25;;;;;12.35;69.83;100053.91;6340837;22;45415;-86
2022/01/04 11:04:27;;;;;;;;;3.00;3.00;;;;;12.36;69.47;100058.25;6312624;22;45175;-86
2022/01/04 11:07:01;;;;;;;;;3.50;3.00;;;;;12.38;69.35;100047.63;6340851;22;45254;-86
2022/01/04 11:09:26;;;;;;;;;4.00;3.00;;;;;12.38;70.14;100040.59;6340367;22;45421;-86
2022/01/04 11:11:52;;;;;;;;;2.50;2.50;;;;;12.42;69.60;100046.53;6312583;22;47859;-87
2022/01/04 11:14:18;;;;;;;;;4.25;4.00;;;;;12.43;69.72;100039.47;6312352;22;45227;-86
2022/01/04 11:16:44;;;;;;;;;5.00;4.00;;;;;12.40;69.58;100029.94;6312604;22;45203;-86
2022/01/04 11:19:09;;;;;;;;;6.50;4.25;;;;;12.40;69.87;100040.50;6340754;22;45147;-87
2022/01/04 11:21:42;;;;;;;;;4.75;4.00;;;;;12.42;70.08;100037.81;6340102;22;45239;-89
2022/01/04 11:24:12;;;;;;;;;6.25;5.00;;;;;12.48;70.15;100040.09;6340440;22;45200;-88
2022/01/04 11:26:43;;;;;;;;;5.00;4.00;;;;;12.49;69.74;100047.09;6340665;22;45263;-89
2022/01/04 11:29:09;;;;;;;;;5.00;5.00;;;;;12.49;69.57;100047.09;6340278;22;45122;-87
2022/01/04 11:32:01;;;;;;;;;5.25;4.00;;;;;12.54;69.67;100052.13;6340625;22;46068;-82
2022/01/04 11:34:55;;;;;;;;;3.00;3.00;;;;;12.53;69.96;100060.94;6339961;22;45647;-82
2022/01/04 11:37:22;;;;;;;;;4.00;3.75;;;;;12.54;69.65;100046.84;6310692;22;45279;-83
2022/01/04 11:39:50;;;;;;;;;4.00;3.00;;;;;12.52;69.63;100049.53;6339469;22;45283;-83